Terminal Aerodrome Forecast
Issued by NWS Des Moines, IA

Home | Current Version | Previous Version | Text Only | Print | Product List | Glossary On
Versions: 1 2 3 4 5 6 7 8 9 10 11 12 13 14 15 16 17 18 19
000
FTUS43 KDMX 251729
TAFDSM
TAF
KDSM 251729Z 2518/2618 31012KT P6SM BKN250
     FM252200 27007KT P6SM BKN200
     FM260000 21007KT P6SM BKN110
     FM261500 24011G17KT P6SM SCT250=

USA.gov is the U.S. government's official web portal to all federal, state and local government web resources and services.